Main page
METAR-TAF:

METAR-TAF

Airports :

Pyongyang, North Korea

Pyongyang Sunan International Airport

latitude: 39-02N, longitude: 125-47E, elevation: 36 m

METAR: missing

Time: 22:57 (14:27 UTC)

Forecast

The report was made 9 hours and 32 minutes ago, at 04:55 UTC
Forecast valid from 21 at 06 UTC to 22 at 06 UTC
Wind 8 kt from the North
Visibility 10 km or more
no clouds below 1500 m and no cumulonimbus
Becoming
from 21 at 12 UTC to 21 at 14 UTC
Overcast at a height of 3300 ft
Becoming
from 22 at 01 UTC to 22 at 03 UTC
Visibility: 4000 m
Overcast at a height of 1700 ft
light snow

TAF: ZKPY 210455Z 2106/2206 01004MPS CAVOK TXM01/2106Z TNM05/2121Z BECMG 2112/2114 OVC033 BECMG 2201/2203 4000 -SN OVC017

Weather observations and forecasts of more than 4000 airports (METAR and TAF reports).

The available stations are represented by yellow and red dots on the map.

Hover mouse over dot to see the name of the station.

Then click to see weather observations and forecasts.

To change the map : click on the green buttons with a black cross to zoom in, on the green button with a dash to zoom out, or on the green arrows for adjacent maps.


METAR-TAF: